Time;durP1;ratioP1;P1;durP2;ratioP2;P2;SDS_P1;SDS_P2;PMS_P1;PMS_P2;Temp;Humidity;BMP_temperature;BMP_pressure;BME280_temperature;BME280_humidity;BME280_pressure;Samples;Min_cycle;Max_cycle;Signal;HPM_P1;HPM_P2
2022/05/16 00:01:51;;;;;;;4.72;2.40;;;;;;;17.12;50.38;101264.56;5012107;28;20497;-79
2022/05/16 00:04:16;;;;;;;6.17;2.40;;;;;;;17.09;50.26;101259.47;5013078;28;20030;-79
2022/05/16 00:06:41;;;;;;;3.97;2.20;;;;;;;17.05;50.15;101257.84;5012990;28;20471;-79
2022/05/16 00:09:07;;;;;;;4.10;2.20;;;;;;;17.04;50.09;101258.75;5012626;28;20386;-79
2022/05/16 00:11:33;;;;;;;6.53;3.20;;;;;;;16.97;51.08;101249.41;5013011;28;20030;-79
2022/05/16 00:13:58;;;;;;;4.50;2.73;;;;;;;16.96;49.80;101258.19;5012623;28;20096;-79
2022/05/16 00:16:23;;;;;;;3.53;2.40;;;;;;;16.96;50.98;101252.94;5012594;28;20381;-79
2022/05/16 00:18:49;;;;;;;3.60;2.20;;;;;;;16.95;49.79;101253.84;5012409;28;20120;-79
2022/05/16 00:21:14;;;;;;;2.80;2.10;;;;;;;16.93;49.17;101253.00;5012695;28;20037;-79
2022/05/16 00:23:39;;;;;;;2.63;2.30;;;;;;;16.89;51.50;101243.56;5012116;28;20514;-79
2022/05/16 00:26:04;;;;;;;3.27;1.93;;;;;;;16.85;50.33;101242.78;5012752;28;20034;-79
2022/05/16 00:28:30;;;;;;;2.60;1.93;;;;;;;16.80;52.22;101236.88;5013014;28;20536;-79
2022/05/16 00:30:55;;;;;;;5.13;2.77;;;;;;;16.71;52.66;101238.03;5011968;28;20195;-79
2022/05/16 00:33:20;;;;;;;7.00;2.80;;;;;;;16.70;51.82;101227.63;5013036;28;20037;-79
2022/05/16 00:35:46;;;;;;;4.73;2.90;;;;;;;16.66;51.66;101237.38;5012468;28;20057;-79
2022/05/16 00:38:14;;;;;;;9.20;3.33;;;;;;;16.61;52.15;101232.25;5016902;28;20057;-80
2022/05/16 00:40:39;;;;;;;7.63;3.08;;;;;;;16.58;52.14;101232.38;5015843;28;20066;-79
2022/05/16 00:43:10;;;;;;;4.97;2.67;;;;;;;16.57;52.00;101232.41;5015757;28;20088;-80
2022/05/16 00:45:37;;;;;;;3.22;2.30;;;;;;;16.57;51.30;101235.03;5016503;28;20021;-79
2022/05/16 00:48:04;;;;;;;3.72;2.20;;;;;;;16.58;51.27;101236.75;5016700;28;20026;-79
2022/05/16 01:00:50;;;;;;;4.93;2.65;;;;;;;16.47;52.60;101229.28;5771058;23;20054;-77
2022/05/16 01:06:03;;;;;;;4.18;2.47;;;;;;;16.41;52.98;101225.09;4995950;28;20336;-77
2022/05/16 01:08:32;;;;;;;4.13;2.30;;;;;;;16.37;51.84;101218.22;4996780;28;20125;-77
2022/05/16 01:11:03;;;;;;;3.53;2.30;;;;;;;16.33;53.62;101214.88;4995739;28;20306;-77
2022/05/16 01:13:30;;;;;;;4.75;2.45;;;;;;;16.33;52.97;101221.84;4996846;28;20053;-77
2022/05/16 01:15:57;;;;;;;3.63;2.10;;;;;;;16.31;51.69;101214.06;4996183;28;20471;-76
2022/05/16 01:18:24;;;;;;;2.30;2.10;;;;;;;16.27;52.13;101216.84;4995918;28;20042;-77
2022/05/16 01:21:07;;;;;;;;;;;;;;;16.26;52.02;101220.34;4996358;28;20035;-76
2022/05/16 01:23:37;;;;;;;4.40;2.53;;;;;;;16.27;51.83;101222.06;4995949;28;19924;-77
2022/05/16 01:26:08;;;;;;;4.35;2.42;;;;;;;16.25;51.83;101223.88;4995740;28;20041;-77
2022/05/16 01:28:34;;;;;;;5.05;2.00;;;;;;;16.22;52.09;101217.00;4996491;28;20030;-77
2022/05/16 01:31:00;;;;;;;2.67;2.10;;;;;;;16.22;52.03;101224.84;4996205;28;20030;-77
2022/05/16 01:33:26;;;;;;;2.35;2.03;;;;;;;16.20;51.55;101224.91;4995590;28;20065;-77
2022/05/16 01:35:52;;;;;;;2.03;1.90;;;;;;;16.21;51.23;101226.59;4996135;28;20038;-77
2022/05/16 01:38:19;;;;;;;2.83;2.05;;;;;;;16.20;51.78;101218.78;4996386;28;20045;-77
2022/05/16 01:40:49;;;;;;;2.95;2.00;;;;;;;16.16;53.16;101214.56;4995332;28;20068;-77
2022/05/16 01:43:15;;;;;;;3.75;2.00;;;;;;;16.13;51.48;101212.06;4996209;28;20034;-77
2022/05/16 01:45:43;;;;;;;2.60;2.00;;;;;;;16.10;52.54;101217.38;4995709;28;20038;-77
2022/05/16 01:48:09;;;;;;;4.22;2.00;;;;;;;16.08;52.79;101212.22;4994419;28;20022;-76
2022/05/16 01:50:35;;;;;;;2.05;1.80;;;;;;;16.05;51.36;101210.53;4995894;28;20557;-77
2022/05/16 01:53:00;;;;;;;2.10;1.80;;;;;;;16.11;51.42;101211.25;4994751;28;20030;-76
2022/05/16 01:55:26;;;;;;;2.43;1.97;;;;;;;16.01;52.63;101205.44;4996022;28;20030;-76
2022/05/16 01:57:51;;;;;;;2.13;1.90;;;;;;;15.97;52.64;101196.84;4995600;28;20494;-76
2022/05/16 02:00:18;;;;;;;2.40;1.70;;;;;;;15.93;52.68;101191.75;4994813;28;20034;-77
2022/05/16 02:02:44;;;;;;;2.13;1.85;;;;;;;15.89;52.28;101193.63;4995488;28;20376;-77
2022/05/16 02:05:14;;;;;;;2.03;1.80;;;;;;;15.88;52.58;101186.66;4995658;28;20031;-77
2022/05/16 02:07:40;;;;;;;3.05;2.00;;;;;;;15.84;54.55;101187.63;4994873;28;20057;-78
2022/05/16 02:10:09;;;;;;;3.33;2.10;;;;;;;15.80;52.46;101192.09;4995782;28;20066;-77
2022/05/16 02:12:34;;;;;;;2.50;1.95;;;;;;;15.79;52.64;101186.94;4995509;28;20026;-78
2022/05/16 02:53:47;;;;;;;2.40;2.20;;;;;;;15.56;54.21;101157.13;5490517;22;20137;-76
2022/05/16 02:56:12;;;;;;;1.93;1.83;;;;;;;15.57;53.74;101153.59;4975011;28;20483;-77
2022/05/16 02:58:38;;;;;;;3.63;2.20;;;;;;;15.54;55.00;101138.00;4974365;28;20031;-77
2022/05/16 03:01:03;;;;;;;3.77;2.07;;;;;;;15.53;54.54;101134.53;4974605;28;20038;-77
2022/05/16 03:03:28;;;;;;;2.53;2.10;;;;;;;15.52;54.12;101134.56;4974514;28;20523;-77
2022/05/16 03:05:54;;;;;;;2.10;1.90;;;;;;;15.50;54.35;101129.38;4974977;28;20063;-77
2022/05/16 03:08:19;;;;;;;3.73;2.30;;;;;;;15.49;54.28;101134.66;4975243;28;20102;-77
2022/05/16 03:10:44;;;;;;;3.73;2.40;;;;;;;15.49;54.86;101134.66;4974424;28;20030;-77
2022/05/16 03:13:10;;;;;;;3.00;2.20;;;;;;;15.46;55.23;101129.53;4975262;28;20026;-77
2022/05/16 03:15:35;;;;;;;2.90;2.20;;;;;;;15.44;54.16;101121.72;4975309;28;20069;-77
2022/05/16 03:18:09;;;;;;;3.10;2.17;;;;;;;15.44;54.74;101125.19;4974107;28;20472;-77
2022/05/16 03:33:52;;;;;;;4.75;2.45;;;;;;;15.28;58.66;101131.78;6154045;22;2007173;-78
2022/05/16 03:36:17;;;;;;;5.32;2.40;;;;;;;15.25;55.36;101131.91;6223781;23;20446;-77
2022/05/16 03:41:27;;;;;;;2.92;2.10;;;;;;;15.26;55.58;101138.81;6223874;23;20051;-77
2022/05/16 03:43:53;;;;;;;2.03;1.90;;;;;;;15.24;55.66;101138.03;6223898;23;20426;-77
2022/05/16 03:46:18;;;;;;;2.17;1.97;;;;;;;15.20;55.77;101137.25;6223201;23;20299;-77
2022/05/16 03:48:46;;;;;;;2.43;2.03;;;;;;;15.14;56.94;101138.28;6223249;23;20326;-77
2022/05/16 03:51:14;;;;;;;2.20;1.80;;;;;;;15.10;55.74;101133.19;6223394;23;20087;-76
2022/05/16 03:53:46;;;;;;;2.10;1.70;;;;;;;15.09;57.10;101141.94;6222682;23;20012;-77
2022/05/16 03:56:13;;;;;;;2.13;1.80;;;;;;;15.07;56.06;101138.53;6223754;23;20402;-77
2022/05/16 03:58:38;;;;;;;1.80;1.70;;;;;;;15.03;55.97;101137.75;6223160;23;20418;-77
2022/05/16 04:01:08;;;;;;;1.80;1.70;;;;;;;15.01;56.53;101128.25;6223366;23;20000;-76
2022/05/16 04:03:36;;;;;;;2.67;2.20;;;;;;;15.01;56.65;101136.97;6223718;23;20050;-77
2022/05/16 04:06:02;;;;;;;3.13;2.13;;;;;;;15.00;57.81;101131.75;6223669;23;20001;-76
2022/05/16 04:08:28;;;;;;;2.60;2.00;;;;;;;14.98;56.15;101134.44;6223052;23;20047;-76
2022/05/16 04:10:54;;;;;;;;;;;;;;;14.98;56.50;101127.44;6223948;23;20001;-77
2022/05/16 04:13:19;;;;;;;2.33;2.00;;;;;;;14.97;56.38;101125.72;6224021;23;19919;-77
2022/05/16 04:15:44;;;;;;;3.30;2.20;;;;;;;14.97;56.44;101130.94;6222712;23;20417;-76
2022/05/16 04:18:10;;;;;;;2.40;2.20;;;;;;;14.99;57.49;101133.53;6223728;23;20031;-77
2022/05/16 04:20:35;;;;;;;2.90;2.23;;;;;;;14.97;60.00;101133.56;6223448;23;20083;-76
2022/05/16 04:23:00;;;;;;;2.20;2.00;;;;;;;14.97;57.31;101136.16;6222189;23;20008;-76
2022/05/16 04:25:26;;;;;;;2.00;1.90;;;;;;;15.00;57.54;101145.69;6223677;23;20001;-76
2022/05/16 04:27:51;;;;;;;2.20;2.00;;;;;;;15.01;56.68;101144.81;6222252;23;20333;-76
2022/05/16 04:30:16;;;;;;;2.00;1.80;;;;;;;15.05;58.17;101149.03;6221354;23;20437;-76
2022/05/16 04:32:42;;;;;;;4.27;2.47;;;;;;;15.07;57.06;101147.22;6212056;23;20013;-76
2022/05/16 04:35:10;;;;;;;3.13;2.13;;;;;;;15.07;58.47;101142.00;6216073;23;20016;-76
2022/05/16 04:45:26;;;;;;;2.20;2.00;;;;;;;15.10;59.48;101139.31;6244234;22;20024;-78
2022/05/16 04:47:57;;;;;;;1.80;1.70;;;;;;;15.14;60.54;101148.75;6246772;23;20030;-79
2022/05/16 04:50:29;;;;;;;3.85;2.70;;;;;;;15.17;60.51;101144.34;6246146;23;20058;-79
2022/05/16 04:52:55;;;;;;;3.55;2.67;;;;;;;15.18;58.69;101152.16;6245624;23;20007;-79
2022/05/16 04:55:21;;;;;;;4.32;3.10;;;;;;;15.20;62.53;101145.09;6245556;23;20004;-79
2022/05/16 04:57:47;;;;;;;5.10;3.20;;;;;;;15.25;59.89;101152.81;6245300;23;20004;-79
2022/05/16 05:00:14;;;;;;;3.07;2.47;;;;;;;15.30;60.66;101153.53;6246910;23;20018;-79
2022/05/16 05:02:40;;;;;;;3.97;2.50;;;;;;;15.36;61.37;101153.34;6246659;23;20332;-79
2022/05/16 05:05:07;;;;;;;4.00;2.60;;;;;;;15.40;59.04;101156.72;6245849;23;20071;-78
2022/05/16 05:07:32;;;;;;;;;;;;;;;15.46;62.54;101159.16;6246935;23;20000;-78
2022/05/16 05:15:28;;;;;;;3.83;2.70;;;;;;;15.73;59.22;101148.72;6246651;23;20015;-80
2022/05/16 05:17:59;;;;;;;3.40;2.50;;;;;;;15.84;60.00;101149.28;6245584;23;20004;-79
2022/05/16 05:24:02;;;;;;;2.47;2.10;;;;;;;16.09;58.44;101153.72;6239854;22;20024;-79
2022/05/16 05:26:28;;;;;;;2.00;1.90;;;;;;;16.15;59.97;101153.47;6246765;23;20360;-78
2022/05/16 05:29:22;;;;;;;2.50;2.13;;;;;;;16.28;58.44;101153.06;6246279;23;20103;-77
2022/05/16 05:31:48;;;;;;;2.30;2.10;;;;;;;16.35;59.30;101157.19;6245341;23;20004;-78
2022/05/16 05:34:14;;;;;;;4.57;2.85;;;;;;;16.43;59.17;101156.91;6245656;23;20019;-79
2022/05/16 05:36:41;;;;;;;2.63;2.17;;;;;;;16.48;57.82;101150.63;6246229;23;20004;-78
2022/05/16 05:39:06;;;;;;;2.90;2.13;;;;;;;16.57;58.31;101154.69;6245769;23;20000;-79
2022/05/16 05:41:32;;;;;;;2.40;2.20;;;;;;;16.68;58.38;101149.03;6247108;23;20082;-79
2022/05/16 05:43:57;;;;;;;2.87;2.30;;;;;;;16.77;57.42;101147.84;6245646;23;20000;-79
2022/05/16 05:46:23;;;;;;;3.60;2.40;;;;;;;16.86;59.65;101147.50;6245239;23;20066;-80
2022/05/16 05:48:48;;;;;;;2.10;2.00;;;;;;;16.97;59.50;101158.50;6245791;23;20008;-80
2022/05/16 05:51:15;;;;;;;2.90;2.10;;;;;;;17.07;57.66;101164.25;6245627;23;20067;-80
2022/05/16 05:53:41;;;;;;;2.65;2.00;;;;;;;17.15;58.09;101166.59;6245201;23;20000;-80
2022/05/16 05:56:15;;;;;;;3.38;2.10;;;;;;;17.23;57.57;101177.66;6246114;23;20417;-80
2022/05/16 05:58:41;;;;;;;2.20;2.00;;;;;;;17.27;57.40;101167.88;6245820;23;20000;-78
2022/05/16 06:01:07;;;;;;;2.60;2.03;;;;;;;17.29;56.75;101177.41;6245322;23;20004;-78
2022/05/16 06:03:35;;;;;;;2.35;2.15;;;;;;;17.31;57.00;101181.72;6246396;23;20007;-78
2022/05/16 06:06:01;;;;;;;2.40;2.20;;;;;;;17.31;58.25;101187.84;6245665;23;20004;-78
2022/05/16 06:08:26;;;;;;;4.17;2.53;;;;;;;17.31;58.65;101189.59;6245156;23;20004;-78
2022/05/16 06:10:51;;;;;;;4.13;2.43;;;;;;;17.33;57.79;101182.53;6245859;23;20006;-78
2022/05/16 06:13:18;;;;;;;4.17;2.23;;;;;;;17.36;56.96;101185.06;6244864;23;20114;-78
2022/05/16 06:15:43;;;;;;;2.78;2.15;;;;;;;17.45;59.47;101193.41;6245759;23;19996;-79
2022/05/16 06:18:08;;;;;;;3.27;2.10;;;;;;;17.51;59.15;101183.59;6246329;23;20083;-78
2022/05/16 06:20:34;;;;;;;4.07;2.63;;;;;;;17.61;57.93;101192.81;6245254;23;20788;-79
2022/05/16 06:22:59;;;;;;;4.23;2.23;;;;;;;17.67;57.24;101186.47;6240206;22;20016;-79
2022/05/16 06:25:39;;;;;;;1.90;1.80;;;;;;;17.81;56.99;101202.53;6244940;23;20015;-78
2022/05/16 06:28:25;;;;;;;1.63;1.52;;;;;;;17.91;59.22;101201.25;6245482;23;20004;-79
2022/05/16 06:30:52;;;;;;;2.20;2.00;;;;;;;18.00;57.44;101205.31;6245915;23;20011;-78
2022/05/16 06:33:20;;;;;;;1.80;1.70;;;;;;;18.51;56.99;101191.81;6246137;23;20000;-78
2022/05/16 06:35:47;;;;;;;2.40;2.20;;;;;;;19.02;57.02;101196.66;6244764;23;20004;-78
2022/05/16 06:38:16;;;;;;;2.10;1.90;;;;;;;19.54;56.25;101209.16;6245949;23;20004;-79
2022/05/16 06:40:46;;;;;;;2.30;2.10;;;;;;;19.67;54.97;101207.66;6245558;23;20004;-78
2022/05/16 06:43:12;;;;;;;2.40;2.00;;;;;;;19.48;55.54;101202.41;6244957;23;20007;-79
2022/05/16 06:45:37;;;;;;;1.80;1.70;;;;;;;19.36;55.35;101208.25;6245445;23;20438;-79
2022/05/16 06:48:06;;;;;;;1.70;1.60;;;;;;;19.24;55.62;101217.56;6246190;23;20024;-79
2022/05/16 06:50:32;;;;;;;2.42;1.90;;;;;;;19.14;56.69;101217.13;6244400;23;20008;-79
2022/05/16 06:52:57;;;;;;;2.35;2.13;;;;;;;19.08;56.52;101217.41;6245700;23;20012;-79
2022/05/16 06:55:23;;;;;;;4.50;2.00;;;;;;;19.04;56.55;101214.06;6245772;23;20016;-79
2022/05/16 07:02:59;;;;;;;2.25;1.92;;;;;;;19.25;57.50;101216.63;6243153;22;20028;-79
2022/05/16 07:05:24;;;;;;;4.77;2.73;;;;;;;19.39;55.96;101223.88;6245583;23;20000;-79
2022/05/16 07:07:51;;;;;;;3.77;2.57;;;;;;;19.42;56.02;101227.22;6245045;23;20004;-79
2022/05/16 07:10:16;;;;;;;2.65;2.20;;;;;;;19.48;55.81;101231.34;6244394;23;20480;-79
2022/05/16 08:39:55;;;;;;;3.22;2.13;;;;;;;22.46;53.45;101276.66;6209587;22;20048;-79
2022/05/16 08:42:50;;;;;;;2.22;2.00;;;;;;;22.76;54.30;101267.81;6155938;23;20023;-79
2022/05/16 08:45:35;;;;;;;2.33;2.10;;;;;;;22.99;52.86;101261.16;6156736;23;20029;-79
2022/05/16 08:48:15;;;;;;;5.18;2.45;;;;;;;23.38;51.73;101261.44;6155169;23;20008;-78
2022/05/16 08:50:41;;;;;;;2.70;2.00;;;;;;;23.61;51.87;101265.28;6155967;23;20106;-79
2022/05/16 08:53:13;;;;;;;2.38;2.00;;;;;;;23.85;51.90;101268.16;6156917;23;20005;-79
2022/05/16 08:55:49;;;;;;;2.63;1.90;;;;;;;24.11;50.29;101264.78;6152372;23;20005;-79
2022/05/16 08:58:33;;;;;;;2.47;2.08;;;;;;;24.31;49.69;101266.94;6156741;23;20009;-79
2022/05/16 09:01:19;;;;;;;2.22;2.00;;;;;;;24.51;50.48;101264.75;6156306;23;20060;-79
2022/05/16 09:03:56;;;;;;;1.85;1.75;;;;;;;24.72;50.53;101265.13;6155398;23;20010;-79
2022/05/16 09:06:31;;;;;;;3.00;1.90;;;;;;;24.95;49.29;101270.66;6155566;23;20077;-80
2022/05/16 09:09:29;;;;;;;2.80;2.10;;;;;;;25.14;48.26;101262.25;6154162;23;20061;-82
2022/05/16 09:12:16;;;;;;;3.10;2.10;;;;;;;25.36;49.27;101260.72;6154171;23;20033;-81
2022/05/16 09:14:52;;;;;;;2.25;2.00;;;;;;;25.53;48.15;101262.19;6155501;23;20089;-78
2022/05/16 09:17:40;;;;;;;2.67;2.17;;;;;;;25.66;47.40;101268.31;6155776;23;20012;-78
2022/05/16 09:20:26;;;;;;;2.22;2.03;;;;;;;25.82;47.42;101267.19;6156860;23;20009;-79
2022/05/16 09:23:15;;;;;;;2.50;1.83;;;;;;;25.83;45.37;101251.13;6200602;22;20047;-79
2022/05/16 09:26:02;;;;;;;2.45;1.92;;;;;;;25.74;44.57;101262.41;6245811;23;20011;-79
2022/05/16 09:28:37;;;;;;;1.90;1.80;;;;;;;25.79;46.72;101262.09;6246902;23;20028;-79
2022/05/16 09:31:39;;;;;;;4.07;2.33;;;;;;;26.02;46.94;101263.88;6245778;23;20012;-79
2022/05/16 09:34:06;;;;;;;1.73;1.63;;;;;;;26.15;44.44;101257.69;6198540;23;20005;-80
2022/05/16 09:36:37;;;;;;;2.22;1.50;;;;;;;26.28;43.61;101263.78;6246645;23;20008;-80
2022/05/16 09:39:04;;;;;;;2.13;1.92;;;;;;;26.42;46.10;101262.72;6240618;23;20039;-80
2022/05/16 09:41:43;;;;;;;1.98;1.77;;;;;;;26.61;46.16;101270.16;6246650;23;20321;-80
2022/05/16 09:44:28;;;;;;;2.72;2.10;;;;;;;26.86;44.10;101268.28;6246999;23;20000;-79
2022/05/16 09:47:19;;;;;;;3.22;2.10;;;;;;;26.98;44.88;101274.47;6246187;23;20008;-80
2022/05/16 09:50:03;;;;;;;4.45;2.30;;;;;;;27.11;44.98;101274.38;6246022;23;20065;-79
2022/05/16 09:52:45;;;;;;;3.05;2.10;;;;;;;27.17;44.94;101276.53;6245700;23;20027;-80
2022/05/16 09:55:33;;;;;;;3.53;2.30;;;;;;;27.17;43.62;101284.53;6246585;23;20000;-80
2022/05/16 09:58:13;;;;;;;2.80;2.17;;;;;;;27.15;43.88;101294.44;6245825;23;20325;-80
2022/05/16 10:00:46;;;;;;;4.22;2.22;;;;;;;27.18;43.47;101304.03;6244861;23;20031;-79
2022/05/16 10:03:42;;;;;;;1.88;1.70;;;;;;;27.18;44.74;101304.88;6246126;23;20008;-80
2022/05/16 10:06:25;;;;;;;2.63;1.92;;;;;;;27.21;45.32;101309.97;6245453;23;20054;-81
2022/05/16 10:08:50;;;;;;;3.20;2.20;;;;;;;27.24;43.43;101325.72;6245856;23;20016;-81
2022/05/16 10:11:22;;;;;;;3.50;2.00;;;;;;;27.22;44.31;101319.66;6246454;23;20008;-81
2022/05/16 10:13:48;;;;;;;3.08;2.00;;;;;;;27.34;43.97;101320.50;6244870;23;20239;-81
2022/05/16 10:16:15;;;;;;;3.85;2.30;;;;;;;27.28;44.36;101321.81;6246308;23;20058;-81
2022/05/16 10:18:48;;;;;;;3.72;2.22;;;;;;;27.17;44.80;101319.16;6245060;23;20149;-81
2022/05/16 10:21:25;;;;;;;3.75;2.30;;;;;;;27.06;44.27;101322.69;6245137;23;20325;-81
2022/05/16 10:23:52;;;;;;;2.97;1.98;;;;;;;26.89;44.14;101331.09;6245305;23;20093;-80
2022/05/16 10:26:21;;;;;;;2.92;1.90;;;;;;;26.67;44.38;101332.72;6246093;23;20027;-80
2022/05/16 10:28:52;;;;;;;2.97;1.70;;;;;;;26.40;44.91;101333.00;6244465;23;20008;-81
2022/05/16 10:34:21;;;;;;;3.78;2.20;;;;;;;25.72;47.69;101366.22;6245188;23;20022;-82
2022/05/16 10:36:54;;;;;;;2.28;2.08;;;;;;;25.45;50.27;101379.66;6246129;23;20079;-80
2022/05/16 10:39:24;;;;;;;2.80;2.10;;;;;;;25.12;50.12;101388.97;6246091;23;20007;-81
2022/05/16 10:41:57;;;;;;;3.38;2.10;;;;;;;24.82;50.48;101390.09;6244765;23;20015;-80
2022/05/16 10:44:39;;;;;;;2.28;2.00;;;;;;;24.55;51.14;101398.91;6245987;23;20011;-81
2022/05/16 10:47:17;;;;;;;4.40;2.25;;;;;;;24.41;53.10;101409.56;6245610;23;20433;-80
2022/05/16 10:50:19;;;;;;;4.45;2.38;;;;;;;24.19;54.31;101411.81;6244788;23;20083;-81
2022/05/16 10:53:02;;;;;;;3.45;2.30;;;;;;;24.12;54.58;101413.16;6209568;22;20406;-81
2022/05/16 10:55:37;;;;;;;2.33;2.05;;;;;;;24.13;54.06;101409.56;6244496;23;20433;-80
2022/05/16 10:58:35;;;;;;;3.53;2.00;;;;;;;24.33;55.26;101407.41;6246360;23;20022;-79
2022/05/16 11:01:27;;;;;;;2.30;2.00;;;;;;;24.83;54.14;101413.03;6224858;23;20079;-81
2022/05/16 11:04:07;;;;;;;3.45;2.10;;;;;;;25.21;52.85;101420.22;6244226;23;20004;-80
2022/05/16 11:06:59;;;;;;;2.67;2.10;;;;;;;25.28;52.37;101425.94;6244639;23;20012;-81
2022/05/16 11:10:04;;;;;;;3.50;2.58;;;;;;;25.26;52.51;101425.19;6245093;23;20079;-80
2022/05/16 11:13:00;;;;;;;3.97;2.10;;;;;;;25.30;52.25;101426.69;6245735;23;20325;-81
2022/05/16 11:15:36;;;;;;;2.10;1.90;;;;;;;25.28;51.60;101424.13;6245205;23;20429;-81
2022/05/16 11:18:09;;;;;;;;;;;;;;;25.21;51.74;101427.34;6245071;23;20008;-80
2022/05/16 11:28:36;;;;;;;4.73;2.87;;;;;;;24.34;52.62;101428.53;6241851;22;20271;-81
2022/05/16 11:31:13;;;;;;;4.03;2.70;;;;;;;24.24;52.90;101431.88;6244431;23;20012;-81
2022/05/16 11:33:53;;;;;;;2.92;2.33;;;;;;;24.21;52.64;101439.06;6244861;23;20008;-80
2022/05/16 11:36:52;;;;;;;2.85;2.15;;;;;;;24.21;52.51;101438.22;6245557;23;20000;-81
2022/05/16 11:39:32;;;;;;;2.80;2.33;;;;;;;24.12;53.04;101444.97;6244947;23;20317;-82
2022/05/16 11:42:12;;;;;;;2.13;2.03;;;;;;;24.04;54.99;101441.97;6247152;23;20435;-81
2022/05/16 11:44:59;;;;;;;2.33;2.13;;;;;;;23.89;55.15;101446.38;6246683;23;20321;-81
2022/05/16 11:47:46;;;;;;;2.92;2.10;;;;;;;23.76;57.27;101443.63;6247716;23;20136;-81
2022/05/16 11:50:22;;;;;;;2.15;1.95;;;;;;;23.72;56.66;101444.78;6247451;23;20030;-82
2022/05/16 11:53:19;;;;;;;1.95;1.85;;;;;;;23.77;55.62;101447.16;6244967;23;20027;-82
2022/05/16 12:01:46;;;;;;;2.00;1.90;;;;;;;24.14;56.24;101443.06;6246990;23;20417;-81
2022/05/16 12:04:22;;;;;;;1.75;1.65;;;;;;;24.30;55.87;101458.03;6228161;23;20008;-81
2022/05/16 12:06:58;;;;;;;2.20;2.00;;;;;;;24.35;55.55;101448.81;6246150;23;20091;-81
2022/05/16 12:09:50;;;;;;;3.00;2.20;;;;;;;24.45;56.44;101453.53;6247534;23;20069;-81
2022/05/16 12:12:29;;;;;;;2.22;2.03;;;;;;;24.40;55.50;101460.91;6246535;23;20055;-82
2022/05/16 12:15:17;;;;;;;6.28;3.25;;;;;;;24.18;56.12;101473.75;6246959;23;20324;-81
2022/05/16 12:17:59;;;;;;;7.28;3.65;;;;;;;23.95;56.58;101474.31;6247130;23;20330;-81
2022/05/16 12:20:42;;;;;;;4.18;3.00;;;;;;;23.87;58.02;101469.47;6246032;23;20011;-81
2022/05/16 12:23:10;;;;;;;7.43;3.90;;;;;;;23.80;58.21;101474.31;6247432;23;20325;-81
2022/05/16 12:25:37;;;;;;;6.28;4.38;;;;;;;23.63;59.36;101488.59;6247254;23;20084;-82
2022/05/16 12:28:12;;;;;;;5.65;3.80;;;;;;;23.54;58.53;101495.28;6245784;23;20062;-81
2022/05/16 12:30:37;;;;;;;5.90;3.92;;;;;;;23.53;58.12;101509.47;6246434;23;20011;-81
2022/05/16 12:33:04;;;;;;;9.07;5.50;;;;;;;23.43;58.16;101505.66;6246226;23;20000;-81
2022/05/16 12:35:41;;;;;;;6.72;4.70;;;;;;;23.38;59.51;101503.28;6247175;23;20008;-81
2022/05/16 12:38:10;;;;;;;5.55;3.60;;;;;;;23.39;58.92;101514.75;6246967;23;20050;-81
2022/05/16 12:41:13;;;;;;;4.63;3.90;;;;;;;23.32;58.64;101508.09;6246138;23;20015;-81
2022/05/16 12:43:57;;;;;;;5.82;3.70;;;;;;;23.23;59.26;101526.25;6246698;23;20007;-80
2022/05/16 12:46:43;;;;;;;6.13;4.25;;;;;;;23.11;58.89;101532.22;6247046;23;20008;-81
2022/05/16 12:49:23;;;;;;;4.28;3.53;;;;;;;22.94;59.11;101535.81;6246227;23;20012;-81
2022/05/16 12:51:56;;;;;;;4.80;3.60;;;;;;;22.79;59.47;101521.66;6246558;23;20004;-81
2022/05/16 12:54:24;;;;;;;6.15;3.70;;;;;;;22.58;59.15;101526.34;6246098;23;20007;-81
2022/05/16 12:56:53;;;;;;;5.93;3.88;;;;;;;22.38;60.09;101528.28;6246768;23;20004;-81
2022/05/16 12:59:38;;;;;;;4.93;3.63;;;;;;;22.26;59.29;101536.88;6245884;22;20469;-81
2022/05/16 13:02:15;;;;;;;6.53;3.67;;;;;;;22.16;60.42;101540.00;6246059;23;20023;-81
2022/05/16 13:05:01;;;;;;;4.03;3.25;;;;;;;22.05;61.07;101545.88;6246510;23;20080;-81
2022/05/16 13:07:45;;;;;;;3.70;3.30;;;;;;;21.99;62.63;101554.13;6246880;23;20027;-81
2022/05/16 13:10:48;;;;;;;3.30;3.00;;;;;;;21.93;61.21;101561.50;6246051;23;20008;-80
2022/05/16 13:13:29;;;;;;;3.83;2.90;;;;;;;21.83;62.12;101554.06;6246701;23;20015;-80
2022/05/16 13:16:15;;;;;;;2.92;2.63;;;;;;;21.80;62.38;101561.28;6241287;23;20000;-80
2022/05/16 13:18:51;;;;;;;3.28;2.83;;;;;;;21.79;61.25;101564.88;6244991;23;20011;-80
2022/05/16 13:21:18;;;;;;;2.60;2.40;;;;;;;21.84;61.13;101555.78;6244358;23;20046;-80
2022/05/16 13:23:43;;;;;;;;;;;;;;;21.87;63.07;101565.31;6244183;23;20004;-80
2022/05/16 13:31:48;;;;;;;9.38;5.55;;;;;;;21.71;62.77;101574.06;6245547;23;20483;-81
2022/05/16 13:34:28;;;;;;;6.53;4.40;;;;;;;21.70;62.85;101574.09;6245985;23;20020;-81
2022/05/16 13:36:53;;;;;;;5.60;4.18;;;;;;;21.78;61.38;101577.25;6244648;23;20094;-81
2022/05/16 13:39:19;;;;;;;10.07;5.20;;;;;;;21.94;63.37;101574.66;6246485;23;20101;-81
2022/05/16 13:41:54;;;;;;;8.73;5.03;;;;;;;22.06;62.51;101571.38;6246244;23;20015;-81
2022/05/16 13:44:19;;;;;;;7.05;4.50;;;;;;;22.24;61.22;101570.47;6245808;23;20024;-81
2022/05/16 13:46:44;;;;;;;5.03;3.53;;;;;;;22.43;61.07;101571.25;6245826;23;20019;-81
2022/05/16 13:49:11;;;;;;;4.83;3.43;;;;;;;22.55;60.85;101569.69;6246503;23;20012;-81
2022/05/16 13:51:49;;;;;;;6.03;3.95;;;;;;;22.61;60.76;101571.16;6245013;23;20417;-81
2022/05/16 13:54:30;;;;;;;6.78;4.35;;;;;;;22.66;59.56;101569.13;6246548;23;20039;-81
2022/05/16 13:56:59;;;;;;;4.93;3.42;;;;;;;22.72;59.19;101566.13;6245361;23;20061;-81
2022/05/16 13:59:30;;;;;;;4.38;3.50;;;;;;;22.80;59.88;101571.00;6244560;23;20069;-81
2022/05/16 14:02:08;;;;;;;3.30;3.00;;;;;;;22.78;58.84;101568.47;6246085;23;20004;-82
2022/05/16 14:04:43;;;;;;;4.00;3.20;;;;;;;22.78;59.75;101571.09;6244932;23;20000;-81
2022/05/16 14:07:34;;;;;;;4.90;3.40;;;;;;;22.82;59.07;101572.63;6246316;23;20027;-80
2022/05/16 14:10:05;;;;;;;4.55;3.45;;;;;;;22.84;58.58;101564.63;6245527;23;20003;-82
2022/05/16 14:12:37;;;;;;;3.67;2.92;;;;;;;22.81;58.86;101572.72;6245401;23;20050;-81
2022/05/16 14:15:20;;;;;;;3.20;2.90;;;;;;;22.73;58.71;101567.84;6246033;23;20046;-82
2022/05/16 14:18:11;;;;;;;3.53;2.53;;;;;;;22.67;59.56;101566.38;6245771;23;20019;-82
2022/05/16 14:20:43;;;;;;;2.55;2.35;;;;;;;22.57;59.32;101570.47;6245082;23;20012;-82
2022/05/16 14:23:16;;;;;;;4.95;3.10;;;;;;;22.49;58.90;101575.34;6245842;23;20409;-82
2022/05/16 14:25:43;;;;;;;3.03;2.67;;;;;;;22.49;59.11;101572.69;6245020;23;20082;-80
2022/05/16 14:28:46;;;;;;;3.28;2.75;;;;;;;22.50;58.98;101577.88;6245408;23;20004;-82
2022/05/16 14:31:33;;;;;;;2.78;2.58;;;;;;;22.54;59.13;101575.94;6153155;23;20072;-82
2022/05/16 14:34:17;;;;;;;2.60;2.40;;;;;;;22.58;58.90;101571.31;6240589;23;20413;-82
2022/05/16 14:36:44;;;;;;;2.97;2.30;;;;;;;22.56;58.67;101584.63;6245641;23;20004;-79
2022/05/16 14:39:24;;;;;;;2.65;2.30;;;;;;;22.60;59.22;101578.25;6245796;23;20082;-81
2022/05/16 14:41:54;;;;;;;2.40;2.20;;;;;;;22.62;59.23;101591.38;6245038;23;20007;-81
2022/05/16 14:44:41;;;;;;;2.40;2.20;;;;;;;22.63;58.95;101587.81;6245797;23;20058;-81
2022/05/16 14:47:51;;;;;;;4.95;3.17;;;;;;;22.64;59.10;101585.06;6230055;23;20015;-82
2022/05/16 14:50:23;;;;;;;2.63;2.42;;;;;;;22.65;59.35;101594.72;6177715;23;20004;-81
2022/05/16 14:52:56;;;;;;;2.55;2.35;;;;;;;22.67;59.16;101592.84;6245485;23;20073;-82
2022/05/16 14:55:33;;;;;;;3.35;2.53;;;;;;;22.68;58.77;101593.72;6244436;23;20070;-81
2022/05/16 14:58:00;;;;;;;2.80;2.25;;;;;;;22.70;58.99;101602.41;6245174;23;20083;-80
2022/05/16 15:05:57;;;;;;;2.80;2.40;;;;;;;22.62;58.82;101613.44;6245431;23;20074;-80
2022/05/16 15:08:27;;;;;;;3.67;2.50;;;;;;;22.60;58.66;101617.06;6244331;23;20368;-81
2022/05/16 15:10:54;;;;;;;4.38;3.00;;;;;;;22.53;56.42;101616.53;6244833;23;20012;-80
2022/05/16 15:13:19;;;;;;;7.45;3.28;;;;;;;22.40;56.10;101632.19;6245827;23;20039;-81
2022/05/16 15:15:45;;;;;;;3.90;2.40;;;;;;;22.35;56.66;101620.97;6244329;23;20019;-80
2022/05/16 15:18:11;;;;;;;5.47;2.70;;;;;;;22.31;55.61;101619.47;6245760;23;20004;-81